Amherst, Maine
Current Conditions -  °F | °C
As of 5:15 AM on Saturday 20 Dec 2014 (Local Time) from KBHB Reporting Station
Clear Clear  
Wind Chill: 19°   Ceiling: Unl
Heat Index: 19°   Visibility: 10mi
Dew Point: 19°   Wind: 3mph
Humidity: 100%   Direction: 360°N
Pressure: 30.23"   Gusts: NA
Location:  44.6651°N, 68.3944°W
Report Text: KBHB 201015Z AUTO 36003KT 10SM CLR M07/M07 A3023 RMK AO1
Loading
Personal Weather Stations






























Interactive Weather Map New forecast layout! Learn more

10-Day Weather Forecast

Advertisements
Track Severe Weather on mobile